Acme, Pennsylvania
Current Conditions -  °F | °C
As of 4:45 PM on Monday 20 Oct 2014 (Local Time) from KLBE Reporting Station
Overcast Overcast  
Wind Chill: 13°   Ceiling: 15000
Heat Index: 13°   Visibility: 10mi
Dew Point:   Wind: 9mph
Humidity: 63%   Direction: 240°WSW
Pressure: 29.92"   Gusts: NA
Location:  40.13°N, 79.43°W
Report Text: KLBE 202045Z 24008KT 10SM SCT090 OVC150 13/06 A2992
Loading
Personal Weather Stations






























Interactive Weather Map
Tropical Storm Tracking
New forecast layout! Learn more

10-Day Weather Forecast

Advertisements
Track Severe Weather on mobile